createdAt,value
2022-08-11T00:02:35.568Z,53.99
2022-08-11T00:05:12.348Z,53.05
2022-08-11T00:07:47.146Z,53.09
2022-08-11T00:10:17.964Z,53.11
2022-08-11T00:12:53.417Z,53.16
2022-08-11T00:15:22.204Z,53.01
2022-08-11T00:17:51.947Z,52.93
2022-08-11T00:20:21.955Z,53.14
2022-08-11T00:22:52.174Z,53.28
2022-08-11T00:25:22.306Z,53.02
2022-08-11T00:27:51.006Z,53.08
2022-08-11T00:30:19.478Z,53.13
2022-08-11T00:32:56.485Z,53.09
2022-08-11T00:35:55.834Z,53.04
2022-08-11T00:38:24.534Z,53.38
2022-08-11T00:40:56.604Z,52.81
2022-08-11T00:43:44.436Z,53.42
2022-08-11T00:46:19.775Z,53.21
2022-08-11T00:49:01.004Z,53.50
2022-08-11T00:52:02.060Z,53.11
2022-08-11T00:55:02.426Z,53.02
2022-08-11T00:58:02.815Z,53.35
2022-08-11T01:00:35.689Z,53.04
2022-08-11T01:03:41.395Z,52.86
2022-08-11T01:06:39.718Z,52.80
2022-08-11T01:09:27.125Z,52.74
2022-08-11T01:12:16.306Z,52.73
2022-08-11T01:15:17.405Z,52.76
2022-08-11T01:18:15.375Z,52.85
2022-08-11T01:21:11.084Z,53.54
2022-08-11T01:24:32.970Z,52.84
2022-08-11T01:27:22.964Z,52.98
2022-08-11T01:30:39.625Z,52.96
2022-08-11T01:33:55.675Z,52.80
2022-08-11T01:37:00.244Z,53.17
2022-08-11T01:40:05.454Z,52.94
2022-08-11T01:43:48.475Z,53.07
2022-08-11T01:46:22.826Z,53.19
2022-08-11T01:48:59.056Z,53.10
2022-08-11T01:51:44.703Z,52.79
2022-08-11T01:54:38.644Z,53.00
2022-08-11T01:57:21.725Z,52.92
2022-08-11T01:59:53.355Z,53.10
2022-08-11T02:02:50.267Z,52.87
2022-08-11T02:06:01.848Z,52.88
2022-08-11T02:08:50.519Z,52.62
2022-08-11T02:11:34.464Z,53.22
2022-08-11T02:14:21.043Z,53.14
2022-08-11T02:16:57.814Z,52.91
2022-08-11T02:19:54.114Z,52.98
2022-08-11T02:22:55.394Z,52.78
2022-08-11T02:25:31.364Z,52.57
2022-08-11T02:28:09.084Z,53.02
2022-08-11T02:30:43.555Z,52.80
2022-08-11T02:33:24.033Z,52.70
2022-08-11T02:36:03.525Z,53.04
2022-08-11T02:38:37.064Z,52.71
2022-08-11T02:41:27.525Z,52.57
2022-08-11T02:44:12.085Z,52.77
2022-08-11T02:46:53.054Z,52.70
2022-08-11T02:50:02.540Z,53.28
2022-08-11T02:52:42.737Z,52.88
2022-08-11T02:55:48.826Z,52.60
2022-08-11T02:58:19.931Z,52.55
2022-08-11T03:01:02.635Z,52.68
2022-08-11T03:03:37.464Z,52.41
2022-08-11T03:06:13.825Z,52.67
2022-08-11T03:08:55.389Z,52.37
2022-08-11T03:11:57.894Z,52.54
2022-08-11T03:14:49.998Z,52.76
2022-08-11T03:17:27.184Z,52.91
2022-08-11T03:20:07.395Z,53.36
2022-08-11T03:22:42.046Z,52.87
2022-08-11T03:25:19.709Z,52.63
2022-08-11T03:27:54.484Z,52.59
2022-08-11T03:30:34.467Z,52.52
2022-08-11T03:33:37.684Z,52.43
2022-08-11T03:36:17.365Z,52.88
2022-08-11T03:39:00.174Z,53.06
2022-08-11T03:42:01.281Z,52.78
2022-08-11T03:45:01.465Z,52.85
2022-08-11T03:47:52.630Z,52.92
2022-08-11T03:50:54.426Z,52.52
2022-08-11T03:53:37.845Z,52.64
2022-08-11T03:56:39.555Z,52.43
2022-08-11T03:59:37.777Z,52.89
2022-08-11T04:02:37.175Z,52.87
2022-08-11T04:05:40.415Z,52.46
2022-08-11T04:08:53.134Z,53.12
2022-08-11T04:11:46.034Z,52.63
2022-08-11T04:15:07.166Z,53.05
2022-08-11T04:18:01.124Z,52.37
2022-08-11T04:20:51.864Z,52.77
2022-08-11T04:24:36.728Z,52.87
2022-08-11T04:27:01.887Z,52.76
2022-08-11T04:30:02.109Z,53.01
2022-08-11T04:33:04.095Z,52.84
2022-08-11T04:35:51.176Z,52.79
2022-08-11T04:38:50.704Z,52.76
2022-08-11T04:42:00.376Z,52.82
2022-08-11T04:45:01.904Z,52.62
2022-08-11T04:48:20.705Z,52.76
2022-08-11T04:51:27.088Z,52.93
2022-08-11T04:54:26.350Z,52.93
2022-08-11T04:57:23.666Z,52.67
2022-08-11T05:00:24.014Z,53.12
2022-08-11T05:03:36.450Z,52.53
2022-08-11T05:06:37.234Z,52.39
2022-08-11T05:09:23.839Z,52.58
2022-08-11T05:12:08.694Z,52.93
2022-08-11T05:15:00.145Z,53.07
2022-08-11T05:17:55.935Z,52.91
2022-08-11T05:20:44.686Z,53.21
2022-08-11T05:23:31.284Z,53.13
2022-08-11T05:26:45.981Z,53.05
2022-08-11T05:29:57.007Z,53.24
2022-08-11T05:32:46.194Z,53.04
2022-08-11T05:36:00.756Z,53.13
2022-08-11T05:38:31.595Z,53.17
2022-08-11T05:41:19.774Z,53.42
2022-08-11T05:44:20.838Z,53.41
2022-08-11T05:47:09.296Z,53.32
2022-08-11T05:49:58.069Z,53.61
2022-08-11T05:52:47.099Z,53.20
2022-08-11T05:55:35.765Z,53.05
2022-08-11T05:58:26.028Z,53.00
2022-08-11T06:00:55.144Z,53.13
2022-08-11T06:03:29.314Z,53.43
2022-08-11T06:05:59.545Z,53.22
2022-08-11T06:08:36.186Z,53.25
2022-08-11T06:11:07.495Z,53.38
2022-08-11T06:13:44.914Z,53.50
2022-08-11T06:16:16.540Z,53.80
2022-08-11T06:18:47.874Z,53.60
2022-08-11T06:21:18.955Z,53.48
2022-08-11T06:23:48.288Z,53.44
2022-08-11T06:26:17.905Z,53.27
2022-08-11T06:28:49.615Z,53.26
2022-08-11T06:31:24.307Z,53.42
2022-08-11T06:34:01.885Z,53.09
2022-08-11T06:36:37.174Z,52.39
2022-08-11T06:39:19.153Z,51.63
2022-08-11T06:41:53.845Z,51.86
2022-08-11T06:44:32.576Z,51.52
2022-08-11T06:47:10.894Z,51.72
2022-08-11T06:50:04.044Z,51.52
2022-08-11T06:52:36.457Z,51.40
2022-08-11T06:55:55.517Z,51.08
2022-08-11T06:58:16.965Z,50.52
2022-08-11T07:00:49.274Z,51.15
2022-08-11T07:03:21.058Z,51.04
2022-08-11T07:05:53.305Z,51.18
2022-08-11T07:09:12.475Z,51.00
2022-08-11T07:12:21.307Z,50.65
2022-08-11T07:15:11.944Z,51.14
2022-08-11T07:17:50.015Z,51.34
2022-08-11T07:20:37.169Z,50.79
2022-08-11T07:23:28.227Z,50.62
2022-08-11T07:26:19.504Z,50.72
2022-08-11T07:28:58.129Z,50.49
2022-08-11T07:31:33.574Z,50.22
2022-08-11T07:34:15.943Z,50.96
2022-08-11T07:36:51.955Z,50.77
2022-08-11T07:39:22.905Z,50.93
2022-08-11T07:41:54.417Z,51.40
2022-08-11T07:44:34.839Z,51.44
2022-08-11T07:47:21.695Z,51.85
2022-08-11T07:50:11.638Z,51.60
2022-08-11T07:52:41.213Z,51.63
2022-08-11T07:55:15.036Z,51.94
2022-08-11T07:58:15.994Z,52.24
2022-08-11T08:01:10.588Z,52.52
2022-08-11T08:04:08.365Z,52.39
2022-08-11T08:06:57.177Z,52.11
2022-08-11T08:09:44.904Z,52.44
2022-08-11T08:12:33.108Z,52.28
2022-08-11T08:15:25.235Z,52.17
2022-08-11T08:18:09.288Z,52.37
2022-08-11T08:20:50.388Z,52.79
2022-08-11T08:23:33.857Z,53.19
2022-08-11T08:26:05.204Z,53.12
2022-08-11T08:28:35.219Z,53.33
2022-08-11T08:31:03.874Z,53.63
2022-08-11T08:33:33.609Z,53.73
2022-08-11T08:36:17.184Z,53.48
2022-08-11T08:38:50.658Z,53.90
2022-08-11T08:41:23.894Z,54.37
2022-08-11T08:43:55.797Z,53.76
2022-08-11T08:46:29.687Z,53.95
2022-08-11T08:49:08.415Z,53.96
2022-08-11T08:52:02.440Z,53.85
2022-08-11T08:54:41.065Z,54.94
2022-08-11T08:57:12.374Z,54.96
2022-08-11T08:59:49.047Z,54.25
2022-08-11T09:02:34.334Z,53.61
2022-08-11T09:05:05.460Z,53.39
2022-08-11T09:07:38.725Z,53.28
2022-08-11T09:10:12.258Z,53.11
2022-08-11T09:12:43.823Z,52.93
2022-08-11T09:15:19.544Z,53.03
2022-08-11T09:17:50.310Z,53.28
2022-08-11T09:20:21.176Z,53.37
2022-08-11T09:26:20.076Z,53.27
2022-08-11T09:28:51.575Z,53.27
2022-08-11T09:31:23.084Z,53.08
2022-08-11T09:33:55.627Z,52.84
2022-08-11T09:36:41.884Z,52.98
2022-08-11T09:39:31.155Z,52.87
2022-08-11T09:42:23.725Z,52.44
2022-08-11T09:44:53.976Z,52.13
2022-08-11T09:47:24.916Z,52.38
2022-08-11T09:50:00.855Z,52.38
2022-08-11T09:52:33.844Z,52.12
2022-08-11T09:55:06.535Z,51.80
2022-08-11T09:57:55.146Z,51.81
2022-08-11T10:00:30.910Z,51.59
2022-08-11T10:03:02.786Z,51.46
2022-08-11T10:05:49.752Z,51.66
2022-08-11T10:08:20.044Z,51.49
2022-08-11T10:10:49.456Z,51.31
2022-08-11T10:14:30.534Z,51.47
2022-08-11T10:16:16.650Z,51.21
2022-08-11T10:18:53.487Z,51.11
2022-08-11T10:21:31.686Z,50.60
2022-08-11T10:24:19.389Z,51.03
2022-08-11T10:26:55.974Z,50.95
2022-08-11T10:29:49.830Z,51.08
2022-08-11T10:32:57.223Z,50.93
2022-08-11T10:35:28.746Z,50.65
2022-08-11T10:38:08.306Z,49.90
2022-08-11T10:40:40.427Z,49.93
2022-08-11T10:43:14.253Z,48.79
2022-08-11T10:46:05.057Z,49.57
2022-08-11T10:48:39.166Z,51.04
2022-08-11T10:51:15.241Z,48.40
2022-08-11T10:54:02.926Z,47.83
2022-08-11T10:56:51.586Z,48.64
2022-08-11T10:59:20.304Z,48.08
2022-08-11T11:01:51.914Z,47.60
2022-08-11T11:04:24.604Z,48.84
2022-08-11T11:07:04.005Z,50.08
2022-08-11T11:09:34.774Z,47.01
2022-08-11T11:12:29.832Z,53.87
2022-08-11T11:15:17.989Z,46.97
2022-08-11T11:18:04.907Z,49.98
2022-08-11T11:20:45.045Z,47.19
2022-08-11T11:23:20.195Z,48.07
2022-08-11T11:26:10.396Z,53.58
2022-08-11T11:29:26.297Z,46.35
2022-08-11T11:32:09.143Z,46.69
2022-08-11T11:35:12.373Z,45.89
2022-08-11T11:37:56.093Z,45.88
2022-08-11T11:40:31.928Z,47.33
2022-08-11T11:43:01.682Z,46.27
2022-08-11T11:45:30.536Z,46.26
2022-08-11T11:48:01.183Z,47.21
2022-08-11T11:50:36.014Z,45.88
2022-08-11T11:53:08.394Z,45.25
2022-08-11T11:55:38.866Z,46.20
2022-08-11T11:58:25.556Z,45.65
2022-08-11T12:01:12.437Z,46.70
2022-08-11T12:03:42.144Z,47.65
2022-08-11T12:06:15.634Z,47.69
2022-08-11T12:08:45.574Z,47.91
2022-08-11T12:11:32.126Z,47.88
2022-08-11T12:14:10.709Z,47.82
2022-08-11T12:16:41.667Z,47.98
2022-08-11T12:19:13.064Z,48.03
2022-08-11T12:22:05.399Z,48.06
2022-08-11T12:24:53.844Z,48.27
2022-08-11T12:27:25.071Z,48.95
2022-08-11T12:29:57.867Z,48.39
2022-08-11T12:32:29.412Z,48.30
2022-08-11T12:34:58.785Z,48.78
2022-08-11T12:37:33.247Z,48.25
2022-08-11T12:40:48.792Z,49.49
2022-08-11T12:43:39.051Z,48.53
2022-08-11T12:46:15.875Z,48.79
2022-08-11T12:49:06.405Z,50.10
2022-08-11T12:52:01.468Z,49.41
2022-08-11T12:54:52.189Z,49.96
2022-08-11T12:57:45.632Z,49.36
2022-08-11T13:00:33.273Z,49.12
2022-08-11T13:03:20.556Z,51.19
2022-08-11T13:05:50.038Z,49.08
2022-08-11T13:08:19.369Z,49.91
2022-08-11T13:11:21.945Z,49.64
2022-08-11T13:13:57.455Z,50.53
2022-08-11T13:16:30.735Z,50.31
2022-08-11T13:19:01.584Z,49.07
2022-08-11T13:21:31.705Z,49.47
2022-08-11T13:24:03.682Z,49.07
2022-08-11T13:26:47.340Z,49.75
2022-08-11T13:29:22.933Z,49.39
2022-08-11T13:31:52.025Z,48.85
2022-08-11T13:34:21.769Z,48.98
2022-08-11T13:36:53.495Z,49.84
2022-08-11T13:39:24.526Z,50.25
2022-08-11T13:41:57.109Z,50.94
2022-08-11T13:44:28.746Z,48.95
2022-08-11T13:47:01.807Z,47.91
2022-08-11T13:49:32.345Z,49.08
2022-08-11T13:52:01.921Z,50.53
2022-08-11T13:54:33.986Z,47.52
2022-08-11T13:57:13.491Z,47.53
2022-08-11T13:59:51.854Z,47.55
2022-08-11T14:02:29.511Z,47.67
2022-08-11T14:05:00.797Z,47.52
2022-08-11T14:07:36.566Z,49.58
2022-08-11T14:10:07.794Z,50.04
2022-08-11T14:12:57.087Z,47.58
2022-08-11T14:15:29.315Z,47.22
2022-08-11T14:18:03.525Z,47.10
2022-08-11T14:20:55.276Z,48.46
2022-08-11T14:23:29.986Z,47.55
2022-08-11T14:26:16.925Z,46.71
2022-08-11T14:28:48.510Z,48.14
2022-08-11T14:31:17.835Z,46.69
2022-08-11T14:34:00.481Z,47.77
2022-08-11T14:36:34.189Z,47.06
2022-08-11T14:39:14.256Z,48.01
2022-08-11T14:42:10.923Z,46.77
2022-08-11T14:45:02.815Z,47.12
2022-08-11T14:47:35.867Z,47.29
2022-08-11T14:50:11.064Z,46.59
2022-08-11T14:52:46.134Z,46.94
2022-08-11T14:55:33.944Z,46.17
2022-08-11T14:58:04.185Z,46.42
2022-08-11T15:00:36.277Z,46.83
2022-08-11T15:03:11.859Z,50.21
2022-08-11T15:05:57.754Z,49.31
2022-08-11T15:08:47.247Z,46.45
2022-08-11T15:11:34.702Z,47.08
2022-08-11T15:14:07.290Z,47.82
2022-08-11T15:16:56.254Z,47.59
2022-08-11T15:19:40.300Z,46.21
2022-08-11T15:22:32.964Z,47.02
2022-08-11T15:25:01.746Z,45.83
2022-08-11T15:27:52.871Z,45.98
2022-08-11T15:30:40.347Z,48.18
2022-08-11T15:33:32.325Z,53.24
2022-08-11T15:36:22.267Z,45.22
2022-08-11T15:38:59.784Z,45.39
2022-08-11T15:41:54.512Z,45.40
2022-08-11T15:45:03.707Z,45.44
2022-08-11T15:47:41.772Z,48.32
2022-08-11T15:50:17.315Z,43.86
2022-08-11T15:52:48.846Z,44.40
2022-08-11T15:55:19.194Z,42.61
2022-08-11T15:58:08.125Z,40.72
2022-08-11T16:00:59.101Z,40.12
2022-08-11T16:04:07.300Z,40.49
2022-08-11T16:06:54.874Z,37.94
2022-08-11T16:09:43.764Z,39.64
2022-08-11T16:12:20.546Z,39.56
2022-08-11T16:15:10.464Z,37.67
2022-08-11T16:17:44.664Z,36.64
2022-08-11T16:20:15.754Z,35.54
2022-08-11T16:22:58.961Z,34.99
2022-08-11T16:27:05.454Z,34.66
2022-08-11T16:28:25.434Z,35.55
2022-08-11T16:30:56.559Z,36.14
2022-08-11T16:33:49.947Z,37.06
2022-08-11T16:36:34.486Z,35.30
2022-08-11T16:39:06.324Z,35.70
2022-08-11T16:41:55.133Z,34.73
2022-08-11T16:44:41.644Z,35.69
2022-08-11T16:47:16.974Z,37.16
2022-08-11T16:49:52.511Z,39.34
2022-08-11T16:52:22.714Z,44.90
2022-08-11T16:55:41.878Z,45.09
2022-08-11T16:58:32.995Z,44.31
2022-08-11T17:01:03.702Z,45.73
2022-08-11T17:03:52.181Z,43.84
2022-08-11T17:06:40.424Z,45.03
2022-08-11T17:09:29.005Z,50.62
2022-08-11T17:12:17.976Z,49.90
2022-08-11T17:14:51.423Z,51.25
2022-08-11T17:17:26.374Z,49.16
2022-08-11T17:20:42.264Z,49.77
2022-08-11T17:23:13.199Z,51.04
2022-08-11T17:26:03.659Z,52.15
2022-08-11T17:29:28.979Z,49.34
2022-08-11T17:32:15.874Z,49.53
2022-08-11T17:38:22.534Z,51.65
2022-08-11T17:41:23.622Z,51.97
2022-08-11T17:44:14.853Z,51.41
2022-08-11T17:47:18.184Z,50.98
2022-08-11T17:49:56.924Z,50.12
2022-08-11T17:53:03.925Z,50.17
2022-08-11T17:55:53.448Z,50.12
2022-08-11T17:58:40.924Z,51.53
2022-08-11T18:01:13.095Z,50.64
2022-08-11T18:03:57.321Z,48.50
2022-08-11T18:06:35.361Z,46.81
2022-08-11T18:09:26.696Z,44.73
2022-08-11T18:12:22.495Z,52.12
2022-08-11T18:15:12.518Z,49.84
2022-08-11T18:18:01.314Z,49.03
2022-08-11T18:20:49.556Z,51.74
2022-08-11T18:23:43.376Z,51.61
2022-08-11T18:26:36.650Z,44.74
2022-08-11T18:29:24.769Z,44.79
2022-08-11T18:32:21.274Z,44.80
2022-08-11T18:35:11.239Z,49.53
2022-08-11T18:38:04.741Z,47.97
2022-08-11T18:40:51.770Z,47.86
2022-08-11T18:43:43.166Z,46.63
2022-08-11T18:46:42.819Z,51.67
2022-08-11T18:50:02.569Z,51.56
2022-08-11T18:52:43.620Z,44.27
2022-08-11T18:55:42.904Z,44.25
2022-08-11T18:58:36.270Z,47.66
2022-08-11T19:01:27.922Z,44.39
2022-08-11T19:04:17.251Z,43.98
2022-08-11T19:07:07.731Z,43.69
2022-08-11T19:09:55.329Z,44.99
2022-08-11T19:12:43.280Z,46.49
2022-08-11T19:15:32.960Z,49.87
2022-08-11T19:18:47.290Z,44.60
2022-08-11T19:21:35.461Z,40.55
2022-08-11T19:24:24.100Z,39.49
2022-08-11T19:27:12.630Z,39.57
2022-08-11T19:30:07.675Z,41.03
2022-08-11T19:33:02.719Z,39.46
2022-08-11T19:35:49.832Z,39.04
2022-08-11T19:38:37.410Z,39.77
2022-08-11T19:41:52.061Z,40.33
2022-08-11T19:44:32.931Z,40.39
2022-08-11T19:47:22.402Z,39.87
2022-08-11T19:50:13.113Z,38.92
2022-08-11T19:53:00.261Z,38.40
2022-08-11T19:55:46.701Z,38.18
2022-08-11T19:58:34.532Z,39.47
2022-08-11T20:01:20.179Z,37.79
2022-08-11T20:04:06.960Z,38.00
2022-08-11T20:06:56.591Z,37.01
2022-08-11T20:10:01.257Z,37.29
2022-08-11T20:12:51.701Z,38.64
2022-08-11T20:15:39.911Z,38.54
2022-08-11T20:18:29.434Z,38.36
2022-08-11T20:21:24.993Z,39.11
2022-08-11T20:24:21.505Z,38.96
2022-08-11T20:27:24.704Z,37.37
2022-08-11T20:30:12.484Z,38.26
2022-08-11T20:33:00.652Z,39.10
2022-08-11T20:35:48.391Z,38.67
2022-08-11T20:38:40.770Z,38.51
2022-08-11T20:41:31.571Z,38.63
2022-08-11T20:44:36.891Z,38.82
2022-08-11T20:47:25.216Z,38.29
2022-08-11T20:50:19.492Z,39.72
2022-08-11T20:53:07.621Z,38.93
2022-08-11T20:56:00.166Z,38.19
2022-08-11T21:02:11.896Z,39.52
2022-08-11T21:05:06.575Z,39.64
2022-08-11T21:08:00.671Z,40.41
2022-08-11T21:11:27.880Z,40.22
2022-08-11T21:14:46.446Z,40.17
2022-08-11T21:18:00.599Z,38.75
2022-08-11T21:20:52.886Z,40.37
2022-08-11T21:23:39.933Z,40.35
2022-08-11T21:26:31.081Z,40.54
2022-08-11T21:29:22.382Z,41.43
2022-08-11T21:32:10.025Z,42.14
2022-08-11T21:34:57.556Z,42.24
2022-08-11T21:37:44.830Z,42.50
2022-08-11T21:40:38.002Z,43.32
2022-08-11T21:43:25.301Z,42.74
2022-08-11T21:46:13.962Z,42.94
2022-08-11T21:49:00.621Z,42.80
2022-08-11T21:51:46.291Z,42.54
2022-08-11T21:54:32.921Z,43.27
2022-08-11T21:57:20.278Z,42.63
2022-08-11T22:00:12.371Z,43.08
2022-08-11T22:03:03.345Z,42.71
2022-08-11T22:05:52.081Z,43.78
2022-08-11T22:08:40.574Z,44.02
2022-08-11T22:11:31.856Z,47.54
2022-08-11T22:14:41.392Z,49.26
2022-08-11T22:20:50.002Z,47.31
2022-08-11T22:23:38.231Z,44.76
2022-08-11T22:26:27.392Z,45.43
2022-08-11T22:29:14.991Z,44.39
2022-08-11T22:32:02.652Z,43.94
2022-08-11T22:34:53.787Z,43.77
2022-08-11T22:37:44.091Z,43.45
2022-08-11T22:40:33.222Z,43.53
2022-08-11T22:43:22.922Z,46.70
2022-08-11T22:46:15.997Z,45.46
2022-08-11T22:49:07.381Z,44.55
2022-08-11T22:51:58.982Z,46.69
2022-08-11T22:54:54.211Z,44.31
2022-08-11T22:58:00.447Z,44.64
2022-08-11T23:00:48.744Z,43.66
2022-08-11T23:03:37.574Z,43.99
2022-08-11T23:06:25.211Z,43.95
2022-08-11T23:09:12.394Z,44.19
2022-08-11T23:12:06.679Z,44.96
2022-08-11T23:15:02.221Z,43.99
2022-08-11T23:18:05.022Z,45.92
2022-08-11T23:21:01.852Z,49.22
2022-08-11T23:23:51.151Z,47.33
2022-08-11T23:26:40.981Z,45.09
2022-08-11T23:29:34.382Z,45.15
2022-08-11T23:32:23.182Z,44.84
2022-08-11T23:42:32.391Z,45.01
2022-08-11T23:45:26.602Z,44.83
2022-08-11T23:48:13.042Z,44.94
2022-08-11T23:51:22.701Z,45.93
2022-08-11T23:54:46.091Z,44.94
2022-08-11T23:57:48.816Z,44.77
